sensor_id;sensor_type;location;lat;lon;timestamp;pressure;altitude;pressure_sealevel;temperature;humidity
48563;BME280;34981;49.104;11.396;2023-07-31T00:00:15;98365.19;;;13.47;100.00
48563;BME280;34981;49.104;11.396;2023-07-31T00:02:42;98336.50;;;13.16;100.00
48563;BME280;34981;49.104;11.396;2023-07-31T00:05:10;98382.19;;;13.17;100.00
48563;BME280;34981;49.104;11.396;2023-07-31T00:07:37;98398.09;;;13.07;100.00
48563;BME280;34981;49.104;11.396;2023-07-31T00:10:04;98452.91;;;13.14;100.00
48563;BME280;34981;49.104;11.396;2023-07-31T00:12:31;98488.75;;;13.21;100.00
48563;BME280;34981;49.104;11.396;2023-07-31T00:14:59;98500.13;;;13.23;100.00
48563;BME280;34981;49.104;11.396;2023-07-31T00:17:27;98506.13;;;13.07;100.00
48563;BME280;34981;49.104;11.396;2023-07-31T00:19:54;98486.41;;;12.82;100.00
48563;BME280;34981;49.104;11.396;2023-07-31T00:22:21;98580.44;;;13.10;100.00
48563;BME280;34981;49.104;11.396;2023-07-31T00:24:48;98584.16;;;13.15;100.00
48563;BME280;34981;49.104;11.396;2023-07-31T00:27:15;98580.06;;;13.06;100.00
48563;BME280;34981;49.104;11.396;2023-07-31T00:29:43;98608.66;;;13.20;100.00
48563;BME280;34981;49.104;11.396;2023-07-31T00:32:10;98573.63;;;13.07;100.00
48563;BME280;34981;49.104;11.396;2023-07-31T00:34:37;98618.47;;;13.08;100.00
48563;BME280;34981;49.104;11.396;2023-07-31T00:37:04;98668.22;;;13.25;100.00
48563;BME280;34981;49.104;11.396;2023-07-31T00:39:33;98658.94;;;13.21;100.00
48563;BME280;34981;49.104;11.396;2023-07-31T00:42:00;98660.97;;;13.26;100.00
48563;BME280;34981;49.104;11.396;2023-07-31T00:44:28;98640.16;;;13.27;100.00
48563;BME280;34981;49.104;11.396;2023-07-31T00:46:55;98627.72;;;13.25;100.00
48563;BME280;34981;49.104;11.396;2023-07-31T00:49:23;98638.91;;;13.29;100.00
48563;BME280;34981;49.104;11.396;2023-07-31T00:51:50;98641.84;;;13.28;100.00
48563;BME280;34981;49.104;11.396;2023-07-31T00:54:17;98656.38;;;13.27;100.00
48563;BME280;34981;49.104;11.396;2023-07-31T00:56:45;98662.66;;;13.20;100.00
48563;BME280;34981;49.104;11.396;2023-07-31T00:59:12;98682.78;;;13.24;100.00
48563;BME280;34981;49.104;11.396;2023-07-31T01:01:39;98689.47;;;13.22;100.00
48563;BME280;34981;49.104;11.396;2023-07-31T01:04:07;98715.81;;;13.27;100.00
48563;BME280;34981;49.104;11.396;2023-07-31T01:09:22;98662.91;;;12.81;100.00
48563;BME280;34981;49.104;11.396;2023-07-31T01:11:53;98727.13;;;12.72;100.00
48563;BME280;34981;49.104;11.396;2023-07-31T01:14:23;98758.31;;;12.62;100.00
48563;BME280;34981;49.104;11.396;2023-07-31T01:16:50;98825.75;;;12.75;100.00
48563;BME280;34981;49.104;11.396;2023-07-31T01:19:18;98806.09;;;12.55;100.00
48563;BME280;34981;49.104;11.396;2023-07-31T01:24:52;98879.09;;;12.73;100.00
48563;BME280;34981;49.104;11.396;2023-07-31T01:27:23;98899.44;;;12.82;100.00
48563;BME280;34981;49.104;11.396;2023-07-31T01:32:21;98864.47;;;13.07;100.00
48563;BME280;34981;49.104;11.396;2023-07-31T01:34:49;98822.09;;;13.01;100.00
48563;BME280;34981;49.104;11.396;2023-07-31T01:37:17;98819.63;;;12.99;100.00
48563;BME280;34981;49.104;11.396;2023-07-31T01:39:44;98820.03;;;12.96;100.00
48563;BME280;34981;49.104;11.396;2023-07-31T01:42:12;98792.50;;;12.81;100.00
48563;BME280;34981;49.104;11.396;2023-07-31T01:44:39;98804.81;;;12.57;100.00
48563;BME280;34981;49.104;11.396;2023-07-31T01:47:06;98870.63;;;12.63;100.00
48563;BME280;34981;49.104;11.396;2023-07-31T01:49:33;98910.09;;;12.64;100.00
48563;BME280;34981;49.104;11.396;2023-07-31T01:52:00;98967.56;;;12.84;100.00
48563;BME280;34981;49.104;11.396;2023-07-31T01:54:27;98970.88;;;12.93;100.00
48563;BME280;34981;49.104;11.396;2023-07-31T01:56:56;98903.03;;;12.63;100.00
48563;BME280;34981;49.104;11.396;2023-07-31T01:59:23;98936.22;;;12.57;100.00
48563;BME280;34981;49.104;11.396;2023-07-31T02:01:50;98980.25;;;12.64;100.00
48563;BME280;34981;49.104;11.396;2023-07-31T02:04:20;99011.78;;;12.76;100.00
48563;BME280;34981;49.104;11.396;2023-07-31T02:06:47;99003.91;;;12.75;100.00
48563;BME280;34981;49.104;11.396;2023-07-31T02:09:15;98995.63;;;12.63;100.00
48563;BME280;34981;49.104;11.396;2023-07-31T02:11:42;99038.59;;;12.78;100.00
48563;BME280;34981;49.104;11.396;2023-07-31T02:14:09;99045.00;;;12.83;100.00
48563;BME280;34981;49.104;11.396;2023-07-31T02:16:36;99050.81;;;12.94;100.00
48563;BME280;34981;49.104;11.396;2023-07-31T02:19:05;99031.28;;;12.98;100.00
48563;BME280;34981;49.104;11.396;2023-07-31T02:21:32;98959.69;;;12.63;100.00
48563;BME280;34981;49.104;11.396;2023-07-31T02:23:59;98988.97;;;12.53;100.00
48563;BME280;34981;49.104;11.396;2023-07-31T02:26:27;99050.63;;;12.62;100.00
48563;BME280;34981;49.104;11.396;2023-07-31T02:28:54;99086.53;;;12.69;100.00
48563;BME280;34981;49.104;11.396;2023-07-31T02:31:21;99100.03;;;12.76;100.00
48563;BME280;34981;49.104;11.396;2023-07-31T02:33:49;99113.53;;;12.89;100.00
48563;BME280;34981;49.104;11.396;2023-07-31T02:36:16;99100.66;;;12.98;100.00
48563;BME280;34981;49.104;11.396;2023-07-31T02:38:43;99088.41;;;13.02;100.00
48563;BME280;34981;49.104;11.396;2023-07-31T02:41:10;99073.66;;;13.04;100.00
48563;BME280;34981;49.104;11.396;2023-07-31T02:43:37;99043.97;;;12.98;100.00
48563;BME280;34981;49.104;11.396;2023-07-31T02:46:04;99068.28;;;12.98;100.00
48563;BME280;34981;49.104;11.396;2023-07-31T02:48:32;99074.91;;;13.02;100.00
48563;BME280;34981;49.104;11.396;2023-07-31T02:50:59;99089.03;;;13.04;100.00
48563;BME280;34981;49.104;11.396;2023-07-31T02:53:26;99096.50;;;13.02;100.00
48563;BME280;34981;49.104;11.396;2023-07-31T02:55:53;99108.78;;;13.04;100.00
48563;BME280;34981;49.104;11.396;2023-07-31T02:58:20;99111.47;;;13.04;100.00
48563;BME280;34981;49.104;11.396;2023-07-31T03:00:47;99132.69;;;13.07;100.00
48563;BME280;34981;49.104;11.396;2023-07-31T03:03:15;99141.59;;;13.01;100.00
48563;BME280;34981;49.104;11.396;2023-07-31T03:05:42;99161.56;;;13.00;100.00
48563;BME280;34981;49.104;11.396;2023-07-31T03:08:10;99162.34;;;12.94;100.00
48563;BME280;34981;49.104;11.396;2023-07-31T03:10:37;99203.69;;;13.01;100.00
48563;BME280;34981;49.104;11.396;2023-07-31T03:13:04;99206.00;;;13.04;100.00
48563;BME280;34981;49.104;11.396;2023-07-31T03:15:31;99206.84;;;13.05;100.00
48563;BME280;34981;49.104;11.396;2023-07-31T03:17:59;99205.16;;;13.04;100.00
48563;BME280;34981;49.104;11.396;2023-07-31T03:20:26;99218.69;;;13.10;100.00
48563;BME280;34981;49.104;11.396;2023-07-31T03:22:53;99210.38;;;13.05;100.00
48563;BME280;34981;49.104;11.396;2023-07-31T03:25:20;99212.03;;;13.06;100.00
48563;BME280;34981;49.104;11.396;2023-07-31T03:27:47;99209.94;;;12.95;100.00
48563;BME280;34981;49.104;11.396;2023-07-31T03:30:14;99211.97;;;12.80;100.00
48563;BME280;34981;49.104;11.396;2023-07-31T03:32:41;99260.81;;;12.85;100.00
48563;BME280;34981;49.104;11.396;2023-07-31T03:35:09;99284.69;;;12.88;100.00
48563;BME280;34981;49.104;11.396;2023-07-31T03:37:36;99303.63;;;13.01;100.00
48563;BME280;34981;49.104;11.396;2023-07-31T03:40:03;99295.75;;;13.06;100.00
48563;BME280;34981;49.104;11.396;2023-07-31T03:42:31;99298.03;;;13.09;100.00
48563;BME280;34981;49.104;11.396;2023-07-31T03:44:58;99254.59;;;12.98;100.00
48563;BME280;34981;49.104;11.396;2023-07-31T03:47:26;99241.66;;;12.80;100.00
48563;BME280;34981;49.104;11.396;2023-07-31T03:49:53;99236.03;;;12.62;100.00
48563;BME280;34981;49.104;11.396;2023-07-31T03:52:21;99316.22;;;12.74;100.00
48563;BME280;34981;49.104;11.396;2023-07-31T03:54:48;99337.66;;;12.89;100.00
48563;BME280;34981;49.104;11.396;2023-07-31T03:57:15;99337.88;;;12.94;100.00
48563;BME280;34981;49.104;11.396;2023-07-31T03:59:43;99323.75;;;12.92;100.00
48563;BME280;34981;49.104;11.396;2023-07-31T04:02:10;99303.00;;;12.93;100.00
48563;BME280;34981;49.104;11.396;2023-07-31T04:04:37;99280.13;;;12.88;100.00
48563;BME280;34981;49.104;11.396;2023-07-31T04:07:04;99279.28;;;12.88;100.00
48563;BME280;34981;49.104;11.396;2023-07-31T04:09:31;99288.22;;;12.95;100.00
48563;BME280;34981;49.104;11.396;2023-07-31T04:11:58;99237.91;;;12.74;100.00
48563;BME280;34981;49.104;11.396;2023-07-31T04:14:25;99235.59;;;12.65;100.00
48563;BME280;34981;49.104;11.396;2023-07-31T04:16:53;99263.41;;;12.65;100.00
48563;BME280;34981;49.104;11.396;2023-07-31T04:19:20;99283.56;;;12.63;100.00
48563;BME280;34981;49.104;11.396;2023-07-31T04:21:47;99294.91;;;12.52;100.00
48563;BME280;34981;49.104;11.396;2023-07-31T04:24:14;99337.03;;;12.46;100.00
48563;BME280;34981;49.104;11.396;2023-07-31T04:26:41;99397.88;;;12.48;100.00
48563;BME280;34981;49.104;11.396;2023-07-31T04:29:09;99436.69;;;12.47;100.00
48563;BME280;34981;49.104;11.396;2023-07-31T04:31:36;99479.44;;;12.51;100.00
48563;BME280;34981;49.104;11.396;2023-07-31T04:34:05;99508.94;;;12.52;100.00
48563;BME280;34981;49.104;11.396;2023-07-31T04:36:33;99524.97;;;12.54;100.00
48563;BME280;34981;49.104;11.396;2023-07-31T04:39:00;99548.84;;;12.57;100.00
48563;BME280;34981;49.104;11.396;2023-07-31T04:41:28;99594.59;;;12.65;100.00
48563;BME280;34981;49.104;11.396;2023-07-31T04:43:55;99606.69;;;12.69;100.00
48563;BME280;34981;49.104;11.396;2023-07-31T04:46:22;99607.81;;;12.81;100.00
48563;BME280;34981;49.104;11.396;2023-07-31T04:48:49;99573.50;;;12.75;100.00
48563;BME280;34981;49.104;11.396;2023-07-31T04:51:16;99576.41;;;12.73;100.00
48563;BME280;34981;49.104;11.396;2023-07-31T04:53:43;99602.63;;;12.79;100.00
48563;BME280;34981;49.104;11.396;2023-07-31T04:56:10;99626.31;;;13.05;100.00
48563;BME280;34981;49.104;11.396;2023-07-31T04:58:37;99615.50;;;13.05;100.00
48563;BME280;34981;49.104;11.396;2023-07-31T05:01:04;99592.88;;;13.34;100.00
48563;BME280;34981;49.104;11.396;2023-07-31T05:03:32;99527.03;;;13.07;100.00
48563;BME280;34981;49.104;11.396;2023-07-31T05:05:59;99550.28;;;13.08;100.00
48563;BME280;34981;49.104;11.396;2023-07-31T05:08:26;99557.53;;;13.08;100.00
48563;BME280;34981;49.104;11.396;2023-07-31T05:10:53;99568.94;;;13.03;100.00
48563;BME280;34981;49.104;11.396;2023-07-31T05:13:20;99602.25;;;13.10;100.00
48563;BME280;34981;49.104;11.396;2023-07-31T05:15:47;99606.28;;;13.14;100.00
48563;BME280;34981;49.104;11.396;2023-07-31T05:18:16;99634.00;;;13.30;100.00
48563;BME280;34981;49.104;11.396;2023-07-31T05:20:43;99622.41;;;13.36;100.00
48563;BME280;34981;49.104;11.396;2023-07-31T05:23:10;99612.63;;;13.35;100.00
48563;BME280;34981;49.104;11.396;2023-07-31T05:25:37;99620.97;;;13.40;100.00
48563;BME280;34981;49.104;11.396;2023-07-31T05:28:05;99634.50;;;13.40;100.00
48563;BME280;34981;49.104;11.396;2023-07-31T05:30:32;99628.91;;;13.41;100.00
48563;BME280;34981;49.104;11.396;2023-07-31T05:32:59;99635.78;;;13.44;100.00
48563;BME280;34981;49.104;11.396;2023-07-31T05:35:26;99643.72;;;13.52;100.00
48563;BME280;34981;49.104;11.396;2023-07-31T05:37:53;99645.50;;;13.66;100.00
48563;BME280;34981;49.104;11.396;2023-07-31T05:40:20;99637.59;;;13.71;100.00
48563;BME280;34981;49.104;11.396;2023-07-31T05:42:48;99687.88;;;13.93;100.00
48563;BME280;34981;49.104;11.396;2023-07-31T05:45:15;99707.34;;;14.17;100.00
48563;BME280;34981;49.104;11.396;2023-07-31T05:47:42;99739.31;;;14.41;100.00
48563;BME280;34981;49.104;11.396;2023-07-31T05:50:09;99694.16;;;14.55;100.00
48563;BME280;34981;49.104;11.396;2023-07-31T05:52:36;99632.13;;;14.60;100.00
48563;BME280;34981;49.104;11.396;2023-07-31T05:55:03;99554.66;;;14.52;100.00
48563;BME280;34981;49.104;11.396;2023-07-31T05:57:30;99514.88;;;14.53;100.00
48563;BME280;34981;49.104;11.396;2023-07-31T05:59:57;99478.84;;;14.52;100.00
48563;BME280;34981;49.104;11.396;2023-07-31T06:02:24;99473.22;;;14.60;100.00
48563;BME280;34981;49.104;11.396;2023-07-31T06:04:52;99448.22;;;14.58;100.00
48563;BME280;34981;49.104;11.396;2023-07-31T06:07:19;99444.25;;;14.67;100.00
48563;BME280;34981;49.104;11.396;2023-07-31T06:09:46;99433.41;;;14.67;100.00
48563;BME280;34981;49.104;11.396;2023-07-31T06:12:13;99404.66;;;14.66;100.00
48563;BME280;34981;49.104;11.396;2023-07-31T06:14:41;99385.06;;;14.71;100.00
48563;BME280;34981;49.104;11.396;2023-07-31T06:17:08;99349.66;;;14.72;100.00
48563;BME280;34981;49.104;11.396;2023-07-31T06:19:35;99362.31;;;14.85;100.00
48563;BME280;34981;49.104;11.396;2023-07-31T06:22:02;99369.28;;;15.12;100.00
48563;BME280;34981;49.104;11.396;2023-07-31T06:24:29;99388.09;;;15.45;100.00
48563;BME280;34981;49.104;11.396;2023-07-31T06:26:56;99355.69;;;15.64;100.00
48563;BME280;34981;49.104;11.396;2023-07-31T06:29:24;99234.53;;;15.57;100.00
48563;BME280;34981;49.104;11.396;2023-07-31T06:31:51;99144.22;;;15.57;100.00
48563;BME280;34981;49.104;11.396;2023-07-31T06:34:19;99095.09;;;15.65;100.00
48563;BME280;34981;49.104;11.396;2023-07-31T06:36:46;99057.06;;;15.72;100.00
48563;BME280;34981;49.104;11.396;2023-07-31T06:39:13;99036.56;;;15.76;100.00
48563;BME280;34981;49.104;11.396;2023-07-31T06:41:40;98993.53;;;15.79;100.00
48563;BME280;34981;49.104;11.396;2023-07-31T06:44:10;98953.13;;;15.89;100.00
48563;BME280;34981;49.104;11.396;2023-07-31T06:46:37;98951.44;;;16.07;100.00
48563;BME280;34981;49.104;11.396;2023-07-31T06:49:05;98967.28;;;16.33;100.00
48563;BME280;34981;49.104;11.396;2023-07-31T06:51:32;98911.72;;;16.35;100.00
48563;BME280;34981;49.104;11.396;2023-07-31T06:53:59;98863.44;;;16.49;100.00
48563;BME280;34981;49.104;11.396;2023-07-31T06:56:26;98818.69;;;16.63;100.00
48563;BME280;34981;49.104;11.396;2023-07-31T06:58:55;98767.78;;;16.70;100.00
48563;BME280;34981;49.104;11.396;2023-07-31T07:01:22;98669.78;;;16.60;100.00
48563;BME280;34981;49.104;11.396;2023-07-31T07:03:49;98629.50;;;16.69;100.00
48563;BME280;34981;49.104;11.396;2023-07-31T07:06:17;98612.41;;;16.85;100.00
48563;BME280;34981;49.104;11.396;2023-07-31T07:08:45;98632.69;;;17.11;100.00
48563;BME280;34981;49.104;11.396;2023-07-31T07:11:12;98500.75;;;17.03;100.00
48563;BME280;34981;49.104;11.396;2023-07-31T07:13:39;98418.53;;;17.13;100.00
48563;BME280;34981;49.104;11.396;2023-07-31T07:16:06;98300.28;;;17.10;100.00
48563;BME280;34981;49.104;11.396;2023-07-31T07:18:33;98174.44;;;17.10;100.00
48563;BME280;34981;49.104;11.396;2023-07-31T07:21:05;98103.09;;;17.25;100.00
48563;BME280;34981;49.104;11.396;2023-07-31T07:23:32;98079.16;;;17.59;100.00
48563;BME280;34981;49.104;11.396;2023-07-31T07:25:59;98017.03;;;17.87;100.00
48563;BME280;34981;49.104;11.396;2023-07-31T07:28:26;97959.44;;;18.26;100.00
48563;BME280;34981;49.104;11.396;2023-07-31T07:30:55;97731.84;;;18.25;100.00
48563;BME280;34981;49.104;11.396;2023-07-31T07:33:22;97549.53;;;18.10;100.00
48563;BME280;34981;49.104;11.396;2023-07-31T07:35:49;97370.03;;;17.89;100.00
48563;BME280;34981;49.104;11.396;2023-07-31T07:38:17;97334.53;;;18.10;100.00
48563;BME280;34981;49.104;11.396;2023-07-31T07:40:46;97228.41;;;18.05;100.00
48563;BME280;34981;49.104;11.396;2023-07-31T07:43:17;97175.81;;;17.85;100.00
48563;BME280;34981;49.104;11.396;2023-07-31T07:45:44;97072.59;;;17.41;100.00
48563;BME280;34981;49.104;11.396;2023-07-31T07:48:11;97079.97;;;17.36;100.00
48563;BME280;34981;49.104;11.396;2023-07-31T07:50:38;97060.09;;;17.40;100.00
48563;BME280;34981;49.104;11.396;2023-07-31T07:53:06;97022.28;;;17.44;100.00
48563;BME280;34981;49.104;11.396;2023-07-31T07:55:33;97057.34;;;17.74;100.00
48563;BME280;34981;49.104;11.396;2023-07-31T07:58:00;96938.09;;;17.63;100.00
48563;BME280;34981;49.104;11.396;2023-07-31T08:00:28;96845.97;;;17.56;100.00
48563;BME280;34981;49.104;11.396;2023-07-31T08:02:55;96757.97;;;17.52;100.00
48563;BME280;34981;49.104;11.396;2023-07-31T08:05:24;96732.78;;;17.65;100.00
48563;BME280;34981;49.104;11.396;2023-07-31T08:07:52;96732.91;;;17.74;100.00
48563;BME280;34981;49.104;11.396;2023-07-31T08:10:19;96690.78;;;17.71;100.00
48563;BME280;34981;49.104;11.396;2023-07-31T08:12:46;96610.78;;;17.59;100.00
48563;BME280;34981;49.104;11.396;2023-07-31T08:15:13;96569.34;;;17.67;100.00
48563;BME280;34981;49.104;11.396;2023-07-31T08:17:40;96497.13;;;17.74;100.00
48563;BME280;34981;49.104;11.396;2023-07-31T08:20:08;96480.19;;;17.77;100.00
48563;BME280;34981;49.104;11.396;2023-07-31T08:22:35;96435.38;;;17.88;100.00
48563;BME280;34981;49.104;11.396;2023-07-31T08:25:02;96456.88;;;18.12;100.00
48563;BME280;34981;49.104;11.396;2023-07-31T08:27:30;96432.88;;;18.28;100.00
48563;BME280;34981;49.104;11.396;2023-07-31T08:29:57;96294.34;;;18.40;100.00
48563;BME280;34981;49.104;11.396;2023-07-31T08:32:24;96254.53;;;18.84;100.00
48563;BME280;34981;49.104;11.396;2023-07-31T08:34:51;96155.47;;;18.62;100.00
48563;BME280;34981;49.104;11.396;2023-07-31T08:37:18;96041.38;;;18.52;100.00
48563;BME280;34981;49.104;11.396;2023-07-31T08:39:45;96018.97;;;18.55;100.00
48563;BME280;34981;49.104;11.396;2023-07-31T08:42:13;95958.25;;;18.46;100.00
48563;BME280;34981;49.104;11.396;2023-07-31T08:44:40;95962.72;;;18.42;100.00
48563;BME280;34981;49.104;11.396;2023-07-31T08:47:07;95973.97;;;18.66;100.00
48563;BME280;34981;49.104;11.396;2023-07-31T08:49:35;95927.38;;;18.59;100.00
48563;BME280;34981;49.104;11.396;2023-07-31T08:52:04;95871.94;;;18.55;100.00
48563;BME280;34981;49.104;11.396;2023-07-31T08:54:31;95870.84;;;18.56;100.00
48563;BME280;34981;49.104;11.396;2023-07-31T08:57:01;95934.38;;;18.95;100.00
48563;BME280;34981;49.104;11.396;2023-07-31T08:59:29;95868.41;;;18.81;100.00
48563;BME280;34981;49.104;11.396;2023-07-31T09:01:58;95796.34;;;18.52;100.00
48563;BME280;34981;49.104;11.396;2023-07-31T09:04:28;95935.00;;;19.09;100.00
48563;BME280;34981;49.104;11.396;2023-07-31T09:06:57;95877.28;;;19.16;100.00
48563;BME280;34981;49.104;11.396;2023-07-31T09:09:26;95836.53;;;19.28;100.00
48563;BME280;34981;49.104;11.396;2023-07-31T09:11:53;95787.13;;;19.29;100.00
48563;BME280;34981;49.104;11.396;2023-07-31T09:14:21;95735.81;;;19.31;100.00
48563;BME280;34981;49.104;11.396;2023-07-31T09:16:52;95700.22;;;19.57;100.00
48563;BME280;34981;49.104;11.396;2023-07-31T09:19:27;95677.06;;;19.84;100.00
48563;BME280;34981;49.104;11.396;2023-07-31T09:21:54;95699.31;;;20.40;100.00
48563;BME280;34981;49.104;11.396;2023-07-31T09:24:28;95598.75;;;20.54;100.00
48563;BME280;34981;49.104;11.396;2023-07-31T09:26:57;95454.53;;;20.07;100.00
48563;BME280;34981;49.104;11.396;2023-07-31T09:29:25;95399.84;;;19.92;100.00
48563;BME280;34981;49.104;11.396;2023-07-31T09:31:57;95335.72;;;19.37;100.00
48563;BME280;34981;49.104;11.396;2023-07-31T09:34:30;95315.19;;;19.52;100.00
48563;BME280;34981;49.104;11.396;2023-07-31T09:36:58;95307.00;;;19.76;100.00
48563;BME280;34981;49.104;11.396;2023-07-31T09:39:28;95329.91;;;19.99;100.00
48563;BME280;34981;49.104;11.396;2023-07-31T09:41:56;95378.06;;;20.44;100.00
48563;BME280;34981;49.104;11.396;2023-07-31T09:44:39;95265.81;;;20.77;100.00
48563;BME280;34981;49.104;11.396;2023-07-31T09:47:22;95109.66;;;20.12;100.00
48563;BME280;34981;49.104;11.396;2023-07-31T09:49:53;95099.44;;;19.93;100.00
48563;BME280;34981;49.104;11.396;2023-07-31T09:52:20;95123.03;;;19.73;100.00
48563;BME280;34981;49.104;11.396;2023-07-31T09:54:48;95106.19;;;19.56;100.00
48563;BME280;34981;49.104;11.396;2023-07-31T09:57:15;95167.59;;;20.21;100.00
48563;BME280;34981;49.104;11.396;2023-07-31T09:59:45;95125.78;;;20.33;100.00
48563;BME280;34981;49.104;11.396;2023-07-31T10:02:15;95061.34;;;20.12;100.00
48563;BME280;34981;49.104;11.396;2023-07-31T10:04:42;95105.56;;;20.65;100.00
48563;BME280;34981;49.104;11.396;2023-07-31T10:07:13;95040.47;;;20.20;100.00
48563;BME280;34981;49.104;11.396;2023-07-31T10:09:41;95039.34;;;20.37;100.00
48563;BME280;34981;49.104;11.396;2023-07-31T10:12:08;94978.06;;;19.87;100.00
48563;BME280;34981;49.104;11.396;2023-07-31T10:14:36;95024.00;;;19.85;100.00
48563;BME280;34981;49.104;11.396;2023-07-31T10:17:05;95131.28;;;20.64;100.00
48563;BME280;34981;49.104;11.396;2023-07-31T10:19:34;95138.38;;;21.00;100.00
48563;BME280;34981;49.104;11.396;2023-07-31T10:22:02;95025.44;;;20.42;100.00
48563;BME280;34981;49.104;11.396;2023-07-31T10:24:29;94939.44;;;20.01;100.00
48563;BME280;34981;49.104;11.396;2023-07-31T10:26:57;94917.81;;;20.43;100.00
48563;BME280;34981;49.104;11.396;2023-07-31T10:29:25;94970.19;;;21.22;100.00
48563;BME280;34981;49.104;11.396;2023-07-31T10:31:53;95021.94;;;21.72;100.00
48563;BME280;34981;49.104;11.396;2023-07-31T10:34:23;94923.25;;;21.85;100.00
48563;BME280;34981;49.104;11.396;2023-07-31T10:36:50;94837.63;;;21.81;100.00
48563;BME280;34981;49.104;11.396;2023-07-31T10:39:33;94844.78;;;21.89;100.00
48563;BME280;34981;49.104;11.396;2023-07-31T10:42:11;94739.19;;;21.09;100.00
48563;BME280;34981;49.104;11.396;2023-07-31T10:44:43;94751.50;;;20.76;100.00
48563;BME280;34981;49.104;11.396;2023-07-31T10:47:10;94798.41;;;20.59;100.00
48563;BME280;34981;49.104;11.396;2023-07-31T10:49:37;94865.72;;;20.90;100.00
48563;BME280;34981;49.104;11.396;2023-07-31T10:52:08;94851.16;;;20.63;100.00
48563;BME280;34981;49.104;11.396;2023-07-31T10:54:37;94877.44;;;20.90;100.00
48563;BME280;34981;49.104;11.396;2023-07-31T10:57:27;94871.34;;;20.78;100.00
48563;BME280;34981;49.104;11.396;2023-07-31T10:59:53;94868.03;;;20.49;100.00
48563;BME280;34981;49.104;11.396;2023-07-31T11:02:40;94859.03;;;20.30;100.00
48563;BME280;34981;49.104;11.396;2023-07-31T11:05:10;94929.47;;;20.78;100.00
48563;BME280;34981;49.104;11.396;2023-07-31T11:07:47;94916.34;;;21.03;100.00
48563;BME280;34981;49.104;11.396;2023-07-31T11:10:18;94921.06;;;21.06;100.00
48563;BME280;34981;49.104;11.396;2023-07-31T11:12:46;94916.47;;;21.10;100.00
48563;BME280;34981;49.104;11.396;2023-07-31T11:15:13;94946.09;;;21.69;100.00
48563;BME280;34981;49.104;11.396;2023-07-31T11:17:41;94769.72;;;20.91;100.00
48563;BME280;34981;49.104;11.396;2023-07-31T11:20:08;94769.03;;;21.40;100.00
48563;BME280;34981;49.104;11.396;2023-07-31T11:22:36;94770.97;;;21.66;100.00
48563;BME280;34981;49.104;11.396;2023-07-31T11:25:03;94695.34;;;21.51;100.00
48563;BME280;34981;49.104;11.396;2023-07-31T11:27:31;94704.53;;;21.65;100.00
48563;BME280;34981;49.104;11.396;2023-07-31T11:30:01;94724.59;;;21.47;100.00
48563;BME280;34981;49.104;11.396;2023-07-31T11:32:29;94726.59;;;21.80;100.00
48563;BME280;34981;49.104;11.396;2023-07-31T11:34:56;94741.56;;;22.16;100.00
48563;BME280;34981;49.104;11.396;2023-07-31T11:40:00;94684.16;;;21.59;100.00
48563;BME280;34981;49.104;11.396;2023-07-31T11:42:27;94711.22;;;21.68;100.00
48563;BME280;34981;49.104;11.396;2023-07-31T11:44:54;94752.06;;;22.10;100.00
48563;BME280;34981;49.104;11.396;2023-07-31T11:47:22;94717.19;;;21.77;100.00
48563;BME280;34981;49.104;11.396;2023-07-31T11:49:49;94726.97;;;21.78;100.00
48563;BME280;34981;49.104;11.396;2023-07-31T11:52:16;94748.28;;;21.65;100.00
48563;BME280;34981;49.104;11.396;2023-07-31T11:54:46;94760.94;;;21.02;100.00
48563;BME280;34981;49.104;11.396;2023-07-31T11:57:13;94795.06;;;21.34;100.00
48563;BME280;34981;49.104;11.396;2023-07-31T11:59:41;94804.25;;;21.45;100.00
48563;BME280;34981;49.104;11.396;2023-07-31T12:02:08;94808.34;;;21.32;100.00
48563;BME280;34981;49.104;11.396;2023-07-31T12:04:36;94789.50;;;21.27;100.00
48563;BME280;34981;49.104;11.396;2023-07-31T12:07:03;94809.19;;;21.36;100.00
48563;BME280;34981;49.104;11.396;2023-07-31T12:09:30;94786.44;;;21.09;100.00
48563;BME280;34981;49.104;11.396;2023-07-31T12:11:57;94810.50;;;21.46;100.00
48563;BME280;34981;49.104;11.396;2023-07-31T12:14:25;94783.28;;;21.07;100.00
48563;BME280;34981;49.104;11.396;2023-07-31T12:16:54;94792.34;;;21.34;100.00
48563;BME280;34981;49.104;11.396;2023-07-31T12:19:21;94799.38;;;21.35;100.00
48563;BME280;34981;49.104;11.396;2023-07-31T12:21:49;94792.78;;;21.36;100.00
48563;BME280;34981;49.104;11.396;2023-07-31T12:24:17;94781.03;;;21.13;100.00
48563;BME280;34981;49.104;11.396;2023-07-31T12:26:45;94808.06;;;21.41;100.00
48563;BME280;34981;49.104;11.396;2023-07-31T12:29:15;94845.97;;;21.65;100.00
48563;BME280;34981;49.104;11.396;2023-07-31T12:31:42;94808.25;;;21.51;100.00
48563;BME280;34981;49.104;11.396;2023-07-31T12:34:16;94782.59;;;21.59;100.00
48563;BME280;34981;49.104;11.396;2023-07-31T12:36:48;94768.59;;;21.64;100.00
48563;BME280;34981;49.104;11.396;2023-07-31T12:39:17;94789.97;;;21.82;100.00
48563;BME280;34981;49.104;11.396;2023-07-31T12:41:45;94767.00;;;21.90;100.00
48563;BME280;34981;49.104;11.396;2023-07-31T12:44:12;94746.50;;;22.03;100.00
48563;BME280;34981;49.104;11.396;2023-07-31T12:46:39;94721.03;;;21.72;100.00
48563;BME280;34981;49.104;11.396;2023-07-31T12:49:06;94730.50;;;22.05;100.00
48563;BME280;34981;49.104;11.396;2023-07-31T12:51:33;94694.38;;;22.26;100.00
48563;BME280;34981;49.104;11.396;2023-07-31T12:54:01;94713.78;;;22.47;100.00